createdAt,value
2019-03-20T00:01:09.701Z,17.53
2019-03-20T00:03:38.851Z,19.87
2019-03-20T00:06:08.105Z,16.63
2019-03-20T00:08:37.246Z,19.10
2019-03-20T00:11:06.717Z,14.40
2019-03-20T00:13:35.849Z,12.97
2019-03-20T00:16:05.026Z,11.10
2019-03-20T00:18:34.410Z,15.37
2019-03-20T00:21:03.560Z,12.50
2019-03-20T00:23:32.719Z,13.13
2019-03-20T00:26:01.870Z,11.33
2019-03-20T00:28:31.055Z,9.40
2019-03-20T00:31:00.196Z,12.23
2019-03-20T00:33:29.361Z,21.33
2019-03-20T00:35:58.503Z,12.97
2019-03-20T00:38:27.658Z,14.87
2019-03-20T00:40:57.197Z,5.73
2019-03-20T00:43:26.407Z,7.50
2019-03-20T00:45:55.626Z,6.73
2019-03-20T00:48:25.374Z,8.33
2019-03-20T00:50:54.600Z,9.10
2019-03-20T00:53:23.756Z,24.83
2019-03-20T00:55:52.924Z,23.47
2019-03-20T00:58:22.158Z,17.37
2019-03-20T01:00:51.336Z,17.03
2019-03-20T01:03:20.422Z,18.03
2019-03-20T01:05:49.485Z,17.77
2019-03-20T01:08:18.593Z,17.03
2019-03-20T01:10:47.670Z,15.13
2019-03-20T01:13:16.704Z,16.37
2019-03-20T01:15:45.741Z,13.30
2019-03-20T01:18:14.762Z,12.30
2019-03-20T01:20:44.177Z,8.47
2019-03-20T01:23:13.258Z,11.67
2019-03-20T01:25:42.363Z,8.57
2019-03-20T01:28:11.836Z,10.53
2019-03-20T01:30:40.960Z,9.30
2019-03-20T01:33:11.112Z,8.87
2019-03-20T01:35:40.357Z,9.20
2019-03-20T01:38:09.424Z,8.60
2019-03-20T01:40:40.342Z,8.83
2019-03-20T01:43:09.634Z,9.33
2019-03-20T01:45:38.730Z,9.17
2019-03-20T01:48:07.833Z,9.13
2019-03-20T01:50:36.929Z,8.67
2019-03-20T01:53:06.028Z,11.23
2019-03-20T01:55:35.109Z,14.93
2019-03-20T01:58:04.275Z,9.83
2019-03-20T02:00:33.607Z,25.00
2019-03-20T02:03:02.703Z,21.67
2019-03-20T02:05:36.264Z,17.43
2019-03-20T02:08:02.671Z,17.27
2019-03-20T02:10:31.832Z,16.70
2019-03-20T02:13:00.964Z,12.07
2019-03-20T02:15:38.789Z,11.40
2019-03-20T02:18:00.761Z,9.20
2019-03-20T02:20:29.841Z,7.63
2019-03-20T02:22:58.965Z,11.03
2019-03-20T02:25:28.468Z,8.27
2019-03-20T02:27:57.545Z,13.73
2019-03-20T02:30:26.666Z,12.43
2019-03-20T02:32:55.699Z,17.07
2019-03-20T02:35:24.754Z,20.30
2019-03-20T02:37:53.824Z,28.60
2019-03-20T02:40:22.945Z,20.80
2019-03-20T02:42:51.964Z,23.67
2019-03-20T02:45:21.025Z,21.87
2019-03-20T02:47:50.112Z,21.50
2019-03-20T02:50:19.226Z,21.73
2019-03-20T02:52:48.306Z,17.50
2019-03-20T02:55:17.420Z,13.73
2019-03-20T02:57:46.528Z,16.13
2019-03-20T03:00:15.687Z,16.00
2019-03-20T03:02:44.881Z,18.30
2019-03-20T03:05:14.391Z,16.70
2019-03-20T03:07:43.519Z,16.13
2019-03-20T03:10:13.075Z,14.80
2019-03-20T03:12:42.205Z,15.67
2019-03-20T03:15:11.417Z,13.17
2019-03-20T03:17:40.552Z,13.57
2019-03-20T03:20:09.771Z,13.47
2019-03-20T03:22:38.845Z,13.10
2019-03-20T03:25:08.083Z,16.33
2019-03-20T03:27:37.200Z,12.53
2019-03-20T03:30:07.157Z,12.10
2019-03-20T03:32:36.259Z,12.20
2019-03-20T03:35:05.717Z,7.30
2019-03-20T03:37:35.089Z,11.00
2019-03-20T03:40:04.863Z,7.40
2019-03-20T03:42:34.366Z,6.47
2019-03-20T03:45:03.463Z,7.00
2019-03-20T03:47:32.554Z,5.83
2019-03-20T03:50:01.607Z,8.00
2019-03-20T03:52:30.718Z,10.03
2019-03-20T03:54:59.748Z,5.43
2019-03-20T03:57:28.882Z,5.30
2019-03-20T03:59:58.011Z,8.40
2019-03-20T04:02:27.107Z,8.97
2019-03-20T04:04:56.187Z,6.20
2019-03-20T04:07:25.299Z,7.73
2019-03-20T04:09:54.388Z,11.07
2019-03-20T04:12:23.877Z,14.17
2019-03-20T04:14:52.977Z,18.40
2019-03-20T04:17:28.888Z,14.77
2019-03-20T04:19:57.948Z,13.30
2019-03-20T04:22:26.996Z,10.27
2019-03-20T04:24:56.445Z,12.73
2019-03-20T04:27:25.555Z,10.00
2019-03-20T04:29:54.615Z,13.27
2019-03-20T04:32:23.757Z,9.07
2019-03-20T04:34:52.833Z,9.20
2019-03-20T04:37:21.889Z,11.60
2019-03-20T04:39:50.904Z,14.63
2019-03-20T04:42:20.022Z,7.83
2019-03-20T04:44:49.125Z,11.47
2019-03-20T04:47:18.122Z,9.80
2019-03-20T04:49:47.240Z,9.33
2019-03-20T04:52:16.373Z,12.30
2019-03-20T04:54:45.478Z,9.97
2019-03-20T04:57:14.598Z,5.93
2019-03-20T04:59:43.662Z,9.70
2019-03-20T05:02:12.794Z,5.97
2019-03-20T05:04:41.902Z,7.83
2019-03-20T05:07:10.888Z,7.13
2019-03-20T05:09:39.984Z,6.97
2019-03-20T05:12:09.050Z,9.70
2019-03-20T05:14:38.479Z,8.03
2019-03-20T05:17:07.788Z,8.47
2019-03-20T05:19:36.961Z,8.53
2019-03-20T05:22:06.137Z,7.57
2019-03-20T05:24:35.213Z,8.27
2019-03-20T05:27:04.430Z,10.37
2019-03-20T05:29:33.508Z,11.03
2019-03-20T05:32:02.559Z,7.50
2019-03-20T05:34:31.671Z,8.13
2019-03-20T05:37:09.897Z,6.43
2019-03-20T05:39:31.549Z,7.33
2019-03-20T05:42:00.667Z,6.90
2019-03-20T05:44:29.778Z,8.73
2019-03-20T05:46:58.987Z,10.00
2019-03-20T05:49:39.080Z,8.27
2019-03-20T05:52:21.199Z,9.43
2019-03-20T05:55:03.400Z,11.83
2019-03-20T05:57:42.223Z,10.90
2019-03-20T06:00:25.230Z,11.23
2019-03-20T06:02:54.741Z,9.97
2019-03-20T06:05:23.785Z,10.73
2019-03-20T06:07:52.787Z,9.90
2019-03-20T06:10:21.927Z,18.57
2019-03-20T06:12:51.074Z,21.67
2019-03-20T06:15:20.424Z,29.97
2019-03-20T06:17:49.647Z,25.23
2019-03-20T06:20:18.727Z,23.00
2019-03-20T06:22:47.858Z,18.47
2019-03-20T06:25:16.976Z,14.10
2019-03-20T06:27:46.074Z,13.43
2019-03-20T06:30:15.894Z,12.87
2019-03-20T06:32:44.999Z,15.17
2019-03-20T06:35:14.205Z,16.03
2019-03-20T06:37:43.295Z,8.60
2019-03-20T06:40:12.716Z,14.83
2019-03-20T06:42:41.896Z,14.90
2019-03-20T06:45:11.786Z,15.57
2019-03-20T06:47:40.924Z,15.93
2019-03-20T06:50:12.668Z,20.00
2019-03-20T06:52:41.892Z,19.70
2019-03-20T06:55:11.023Z,20.10
2019-03-20T06:57:40.159Z,18.30
2019-03-20T07:00:43.717Z,13.27
2019-03-20T07:03:20.117Z,20.47
2019-03-20T07:06:13.295Z,15.37
2019-03-20T07:08:59.803Z,15.83
2019-03-20T07:11:29.028Z,16.47
2019-03-20T07:13:57.971Z,19.80
2019-03-20T07:16:27.243Z,26.50
2019-03-20T07:18:57.370Z,26.10
2019-03-20T07:21:27.267Z,23.97
2019-03-20T07:23:56.930Z,23.33
2019-03-20T07:26:28.559Z,23.97
2019-03-20T07:28:56.813Z,18.97
2019-03-20T07:31:25.930Z,21.65
2019-03-20T07:33:55.680Z,22.47
2019-03-20T07:36:25.200Z,19.33
2019-03-20T07:38:54.341Z,14.97
2019-03-20T07:41:23.370Z,18.87
2019-03-20T07:43:52.493Z,16.20
2019-03-20T07:46:21.658Z,13.20
2019-03-20T07:48:50.904Z,18.67
2019-03-20T07:51:19.959Z,14.30
2019-03-20T07:53:49.036Z,11.47
2019-03-20T07:56:18.153Z,14.73
2019-03-20T07:58:47.237Z,12.07
2019-03-20T08:01:16.347Z,10.97
2019-03-20T08:03:45.467Z,9.10
2019-03-20T08:06:14.665Z,9.73
2019-03-20T08:08:43.786Z,9.30
2019-03-20T08:11:32.010Z,10.67
2019-03-20T08:14:01.285Z,8.23
2019-03-20T08:16:30.436Z,7.23
2019-03-20T08:18:59.892Z,8.17
2019-03-20T08:21:29.027Z,10.67
2019-03-20T08:23:58.224Z,8.70
2019-03-20T08:26:27.432Z,12.80
2019-03-20T08:28:56.653Z,8.00
2019-03-20T08:31:25.804Z,7.10
2019-03-20T08:33:54.957Z,10.33
2019-03-20T08:36:24.144Z,11.13
2019-03-20T08:38:53.240Z,13.57
2019-03-20T08:41:22.419Z,8.27
2019-03-20T08:43:51.662Z,12.97
2019-03-20T08:46:20.845Z,8.67
2019-03-20T08:48:49.946Z,11.23
2019-03-20T08:51:19.177Z,7.73
2019-03-20T08:53:48.420Z,9.37
2019-03-20T08:56:17.614Z,9.87
2019-03-20T08:58:47.632Z,11.23
2019-03-20T09:01:27.845Z,12.87
2019-03-20T09:03:47.609Z,15.00
2019-03-20T09:06:16.808Z,13.93
2019-03-20T09:08:45.893Z,10.83
2019-03-20T09:11:15.080Z,10.07
2019-03-20T09:13:44.208Z,11.07
2019-03-20T09:16:13.374Z,14.77
2019-03-20T09:18:42.856Z,16.33
2019-03-20T09:21:12.026Z,13.40
2019-03-20T09:23:41.204Z,15.67
2019-03-20T09:26:10.421Z,11.40
2019-03-20T09:28:39.610Z,16.87
2019-03-20T09:31:08.741Z,14.83
2019-03-20T09:33:38.111Z,15.60
2019-03-20T09:36:07.254Z,15.13
2019-03-20T09:38:43.465Z,17.53
2019-03-20T09:41:07.236Z,16.10
2019-03-20T09:43:36.702Z,17.37
2019-03-20T09:46:05.972Z,14.80
2019-03-20T09:48:35.105Z,13.83
2019-03-20T09:51:04.221Z,14.73
2019-03-20T09:53:33.354Z,12.97
2019-03-20T09:56:02.836Z,18.03
2019-03-20T09:58:31.953Z,15.67
2019-03-20T10:01:01.185Z,13.93
2019-03-20T10:03:30.348Z,13.07
2019-03-20T10:05:59.472Z,14.40
2019-03-20T10:08:28.957Z,16.43
2019-03-20T10:10:58.032Z,18.23
2019-03-20T10:13:27.072Z,14.73
2019-03-20T10:15:56.197Z,14.83
2019-03-20T10:18:25.163Z,15.53
2019-03-20T10:20:54.264Z,14.77
2019-03-20T10:23:23.291Z,15.53
2019-03-20T10:25:52.427Z,14.43
2019-03-20T10:28:21.553Z,24.07
2019-03-20T10:30:50.970Z,14.67
2019-03-20T10:33:20.184Z,17.90
2019-03-20T10:35:50.584Z,13.03
2019-03-20T10:38:20.033Z,18.67
2019-03-20T10:40:49.230Z,14.30
2019-03-20T10:43:18.410Z,16.23
2019-03-20T10:45:47.822Z,16.20
2019-03-20T10:48:16.956Z,14.70
2019-03-20T10:50:46.141Z,12.03
2019-03-20T10:53:15.302Z,13.80
2019-03-20T10:55:44.495Z,15.40
2019-03-20T10:58:13.719Z,15.10
2019-03-20T11:00:42.898Z,13.97
2019-03-20T11:03:12.089Z,18.30
2019-03-20T11:05:41.292Z,14.83
2019-03-20T11:08:12.876Z,11.83
2019-03-20T11:10:41.186Z,12.83
2019-03-20T11:13:13.513Z,13.53
2019-03-20T11:15:42.620Z,11.87
2019-03-20T11:18:11.771Z,10.40
2019-03-20T11:20:42.192Z,14.60
2019-03-20T11:23:18.185Z,17.07
2019-03-20T11:25:49.971Z,11.80
2019-03-20T11:28:21.309Z,10.90
2019-03-20T11:31:23.998Z,11.77
2019-03-20T11:34:26.493Z,10.27
2019-03-20T11:41:01.056Z,9.03
2019-03-20T11:43:34.636Z,9.70
2019-03-20T11:46:06.606Z,11.93
2019-03-20T11:48:35.717Z,10.80
2019-03-20T11:51:04.908Z,9.67
2019-03-20T11:53:34.212Z,9.57
2019-03-20T11:56:03.402Z,11.17
2019-03-20T11:58:32.537Z,9.83
2019-03-20T12:01:04.960Z,12.53
2019-03-20T12:03:34.361Z,11.13
2019-03-20T12:06:03.498Z,9.33
2019-03-20T12:08:32.583Z,12.83
2019-03-20T12:11:01.735Z,7.33
2019-03-20T12:13:30.974Z,9.63
2019-03-20T12:16:00.126Z,8.63
2019-03-20T12:18:29.330Z,11.43
2019-03-20T12:20:58.517Z,9.13
2019-03-20T12:23:28.139Z,9.53
2019-03-20T12:26:10.386Z,11.07
2019-03-20T12:28:39.621Z,8.17
2019-03-20T12:31:15.552Z,8.87
2019-03-20T12:33:50.270Z,7.50
2019-03-20T12:36:27.311Z,7.40
2019-03-20T12:39:00.879Z,9.50
2019-03-20T12:41:32.697Z,7.83
2019-03-20T12:44:04.878Z,8.00
2019-03-20T12:46:41.727Z,8.03
2019-03-20T12:49:11.080Z,8.73
2019-03-20T12:51:42.165Z,7.47
2019-03-20T12:54:14.353Z,7.43
2019-03-20T12:56:54.495Z,8.88
2019-03-20T13:02:20.005Z,14.03
2019-03-20T13:04:51.306Z,7.30
2019-03-20T13:07:23.753Z,9.07
2019-03-20T13:09:59.568Z,6.80
2019-03-20T13:12:25.903Z,6.73
2019-03-20T13:15:33.432Z,6.90
2019-03-20T13:18:08.406Z,6.67
2019-03-20T13:20:37.579Z,7.30
2019-03-20T13:23:11.306Z,7.20
2019-03-20T13:25:42.318Z,7.87
2019-03-20T13:28:13.980Z,7.63
2019-03-20T13:30:49.766Z,6.30
2019-03-20T13:33:25.815Z,8.43
2019-03-20T13:35:50.580Z,7.00
2019-03-20T13:38:19.609Z,6.07
2019-03-20T13:40:48.877Z,7.83
2019-03-20T13:43:18.023Z,8.63
2019-03-20T13:45:47.298Z,8.57
2019-03-20T13:48:16.400Z,9.40
2019-03-20T13:50:48.213Z,8.97
2019-03-20T13:53:17.369Z,6.43
2019-03-20T13:55:46.683Z,10.17
2019-03-20T13:58:19.122Z,8.60
2019-03-20T14:00:50.774Z,9.33
2019-03-20T14:03:19.886Z,9.80
2019-03-20T14:05:49.354Z,9.53
2019-03-20T14:08:20.024Z,7.80
2019-03-20T14:10:50.852Z,7.57
2019-03-20T14:13:21.196Z,9.30
2019-03-20T14:15:50.364Z,11.63
2019-03-20T14:18:19.526Z,12.20
2019-03-20T14:20:48.798Z,11.12
2019-03-20T14:23:18.168Z,9.53
2019-03-20T14:25:47.463Z,8.90
2019-03-20T14:29:11.990Z,6.93
2019-03-20T14:31:41.211Z,9.93
2019-03-20T14:34:10.360Z,9.07
2019-03-20T14:36:39.499Z,7.43
2019-03-20T14:39:09.123Z,10.73
2019-03-20T14:41:38.274Z,8.87
2019-03-20T14:44:07.501Z,10.53
2019-03-20T14:46:36.638Z,11.60
2019-03-20T14:49:05.830Z,8.57
2019-03-20T14:51:34.941Z,12.03
2019-03-20T14:54:04.612Z,7.17
2019-03-20T14:56:33.738Z,12.80
2019-03-20T14:59:02.917Z,11.33
2019-03-20T15:01:32.026Z,9.50
2019-03-20T15:04:03.924Z,9.43
2019-03-20T15:06:33.073Z,9.77
2019-03-20T15:09:02.177Z,9.53
2019-03-20T15:11:34.128Z,10.07
2019-03-20T15:14:03.383Z,10.27
2019-03-20T15:16:42.038Z,7.20
2019-03-20T15:19:11.187Z,10.27
2019-03-20T15:21:40.396Z,14.60
2019-03-20T15:24:09.537Z,10.17
2019-03-20T15:26:38.948Z,11.27
2019-03-20T15:29:08.466Z,8.77
2019-03-20T15:31:40.827Z,9.97
2019-03-20T15:34:11.029Z,7.33
2019-03-20T15:36:40.207Z,7.40
2019-03-20T15:39:09.343Z,10.47
2019-03-20T15:41:38.539Z,7.87
2019-03-20T15:44:07.742Z,7.20
2019-03-20T15:46:36.987Z,6.87
2019-03-20T15:49:06.412Z,6.80
2019-03-20T15:51:36.056Z,7.07
2019-03-20T15:54:05.356Z,8.30
2019-03-20T15:56:34.856Z,6.53
2019-03-20T15:59:03.959Z,8.63
2019-03-20T16:01:33.111Z,7.20
2019-03-20T16:04:02.325Z,7.47
2019-03-20T16:06:31.547Z,6.47
2019-03-20T16:09:00.630Z,8.00
2019-03-20T16:11:29.837Z,6.73
2019-03-20T16:13:58.981Z,9.43
2019-03-20T16:16:31.250Z,6.20
2019-03-20T16:19:03.483Z,6.40
2019-03-20T16:21:33.024Z,6.83
2019-03-20T16:24:02.148Z,7.97
2019-03-20T16:26:31.346Z,6.37
2019-03-20T16:29:00.546Z,5.67
2019-03-20T16:31:29.951Z,5.63
2019-03-20T16:33:59.115Z,5.80
2019-03-20T16:36:28.274Z,5.27
2019-03-20T16:38:57.628Z,5.67
2019-03-20T16:41:26.819Z,6.10
2019-03-20T16:43:55.955Z,5.17
2019-03-20T16:46:26.209Z,6.43
2019-03-20T16:48:55.370Z,4.17
2019-03-20T16:51:24.524Z,6.10
2019-03-20T16:53:53.589Z,5.10
2019-03-20T16:56:22.914Z,6.83
2019-03-20T16:58:52.011Z,7.03
2019-03-20T17:01:21.122Z,5.33
2019-03-20T17:03:50.316Z,7.23
2019-03-20T17:06:19.523Z,6.07
2019-03-20T17:08:48.747Z,3.90
2019-03-20T17:11:27.413Z,5.73
2019-03-20T17:13:48.931Z,5.73
2019-03-20T17:16:20.230Z,6.53
2019-03-20T17:21:49.346Z,18.37
2019-03-20T17:24:20.620Z,6.03
2019-03-20T17:26:50.855Z,7.87
2019-03-20T17:29:21.281Z,8.67
2019-03-20T17:31:50.319Z,12.80
2019-03-20T17:34:19.533Z,8.57
2019-03-20T17:36:50.831Z,5.70
2019-03-20T17:39:20.143Z,10.33
2019-03-20T17:41:49.322Z,7.73
2019-03-20T17:44:26.797Z,9.03
2019-03-20T17:46:55.948Z,8.10
2019-03-20T17:49:25.169Z,9.07
2019-03-20T17:51:57.137Z,10.40
2019-03-20T17:54:29.013Z,10.60
2019-03-20T17:57:00.542Z,14.97
2019-03-20T17:59:30.124Z,11.20
2019-03-20T18:01:59.219Z,25.83
2019-03-20T18:04:30.413Z,13.40
2019-03-20T18:07:02.892Z,21.43
2019-03-20T18:09:34.044Z,8.83
2019-03-20T18:12:05.215Z,18.93
2019-03-20T18:14:34.524Z,8.60
2019-03-20T18:17:03.644Z,7.47
2019-03-20T18:19:51.996Z,7.27
2019-03-20T18:22:21.085Z,6.10
2019-03-20T18:24:50.131Z,11.87
2019-03-20T18:27:19.244Z,14.17
2019-03-20T18:29:48.289Z,14.70
2019-03-20T18:32:17.436Z,9.53
2019-03-20T18:34:46.522Z,5.40
2019-03-20T18:37:15.636Z,10.17
2019-03-20T18:39:45.199Z,11.83
2019-03-20T18:42:14.349Z,40.43
2019-03-20T18:44:43.604Z,25.67
2019-03-20T18:47:12.698Z,11.17
2019-03-20T18:49:41.891Z,13.80
2019-03-20T18:52:10.967Z,19.57
2019-03-20T18:54:40.426Z,11.40
2019-03-20T18:57:09.597Z,12.53
2019-03-20T18:59:38.753Z,7.73
2019-03-20T19:02:07.897Z,6.43
2019-03-20T19:04:37.080Z,7.03
2019-03-20T19:07:06.306Z,6.80
2019-03-20T19:09:35.505Z,9.20
2019-03-20T19:12:08.761Z,12.13
2019-03-20T19:14:35.558Z,10.80
2019-03-20T19:17:04.643Z,9.33
2019-03-20T19:19:33.746Z,6.43
2019-03-20T19:22:03.011Z,6.87
2019-03-20T19:24:32.030Z,6.67
2019-03-20T19:27:01.253Z,5.80
2019-03-20T19:29:30.668Z,5.53
2019-03-20T19:31:59.842Z,6.10
2019-03-20T19:34:28.898Z,5.87
2019-03-20T19:36:58.026Z,5.33
2019-03-20T19:39:27.135Z,8.53
2019-03-20T19:41:56.239Z,6.87
2019-03-20T19:44:25.580Z,7.33
2019-03-20T19:46:54.668Z,8.27
2019-03-20T19:49:26.575Z,7.27
2019-03-20T19:51:55.731Z,8.73
2019-03-20T19:54:24.859Z,7.30
2019-03-20T19:56:54.035Z,5.00
2019-03-20T19:59:23.155Z,4.50
2019-03-20T20:01:52.285Z,5.63
2019-03-20T20:04:21.452Z,5.63
2019-03-20T20:06:51.062Z,6.57
2019-03-20T20:09:20.257Z,5.30
2019-03-20T20:11:49.429Z,4.27
2019-03-20T20:14:18.642Z,6.17
2019-03-20T20:16:47.813Z,4.97
2019-03-20T20:19:17.005Z,6.03
2019-03-20T20:21:46.269Z,7.90
2019-03-20T20:24:15.290Z,6.30
2019-03-20T20:26:44.444Z,7.47
2019-03-20T20:29:13.559Z,5.17
2019-03-20T20:31:42.854Z,9.60
2019-03-20T20:34:12.016Z,7.53
2019-03-20T20:36:41.091Z,9.53
2019-03-20T20:39:10.202Z,8.30
2019-03-20T20:41:39.482Z,8.70
2019-03-20T20:44:08.551Z,7.67
2019-03-20T20:46:37.698Z,9.03
2019-03-20T20:49:06.881Z,8.40
2019-03-20T20:51:35.977Z,7.53
2019-03-20T20:54:05.038Z,6.90
2019-03-20T20:56:34.170Z,7.47
2019-03-20T20:59:03.309Z,7.97
2019-03-20T21:01:32.493Z,10.97
2019-03-20T21:04:01.559Z,7.47
2019-03-20T21:06:30.648Z,8.87
2019-03-20T21:08:59.718Z,7.33
2019-03-20T21:11:28.816Z,7.33
2019-03-20T21:13:57.814Z,6.67
2019-03-20T21:16:27.951Z,6.53
2019-03-20T21:19:33.367Z,6.90
2019-03-20T21:22:44.539Z,8.03
2019-03-20T21:25:15.375Z,8.90
2019-03-20T21:28:31.412Z,7.13
2019-03-20T21:31:33.061Z,7.87
2019-03-20T21:34:31.540Z,8.03
2019-03-20T21:37:45.182Z,6.10
2019-03-20T21:40:16.464Z,6.50
2019-03-20T21:43:21.316Z,5.77
2019-03-20T21:46:32.233Z,5.90
2019-03-20T21:49:01.864Z,5.87
2019-03-20T21:51:31.431Z,8.00
2019-03-20T21:54:42.092Z,6.93
2019-03-20T21:57:47.067Z,9.73
2019-03-20T22:01:15.532Z,8.27
2019-03-20T22:03:45.185Z,6.07
2019-03-20T22:06:51.057Z,6.17
2019-03-20T22:09:48.253Z,5.17
2019-03-20T22:12:35.255Z,7.53
2019-03-20T22:15:15.994Z,8.83
2019-03-20T22:18:26.129Z,6.57
2019-03-20T22:21:18.606Z,8.00
2019-03-20T22:24:15.227Z,7.77
2019-03-20T22:27:23.778Z,8.20
2019-03-20T22:29:53.353Z,19.43
2019-03-20T22:33:11.337Z,13.20
2019-03-20T22:35:59.657Z,13.43
2019-03-20T22:39:25.246Z,10.70
2019-03-20T22:42:25.745Z,12.67
2019-03-20T22:45:04.728Z,11.23
2019-03-20T22:48:03.344Z,15.87
2019-03-20T22:50:52.578Z,8.37
2019-03-20T22:53:47.733Z,7.27
2019-03-20T22:56:53.271Z,7.20
2019-03-20T22:59:22.881Z,13.70
2019-03-20T23:02:05.591Z,17.53
2019-03-20T23:04:38.146Z,11.50
2019-03-20T23:07:10.374Z,13.87
2019-03-20T23:09:39.081Z,7.97
2019-03-20T23:12:11.796Z,10.83
2019-03-20T23:14:41.455Z,9.07
2019-03-20T23:17:11.122Z,9.23
2019-03-20T23:19:41.545Z,11.10
2019-03-20T23:22:11.690Z,7.87
2019-03-20T23:24:41.364Z,7.83
2019-03-20T23:27:14.764Z,7.20
2019-03-20T23:29:44.371Z,5.87
2019-03-20T23:32:14.106Z,6.10
2019-03-20T23:34:43.667Z,7.47
2019-03-20T23:37:13.318Z,11.53
2019-03-20T23:39:42.948Z,11.50
2019-03-20T23:42:12.512Z,11.57
2019-03-20T23:44:42.154Z,10.20
2019-03-20T23:47:11.801Z,12.83
2019-03-20T23:49:41.418Z,11.63
2019-03-20T23:52:11.030Z,10.37
2019-03-20T23:54:49.979Z,13.33
2019-03-20T23:57:20.138Z,13.13
2019-03-20T23:59:50.298Z,10.93
